createdAt,value
2018-06-01T00:01:19.863Z,16.80
2018-06-01T00:03:47.415Z,16.70
2018-06-01T00:06:14.999Z,16.70
2018-06-01T00:08:43.321Z,16.60
2018-06-01T00:11:10.900Z,16.60
2018-06-01T00:13:38.462Z,16.70
2018-06-01T00:16:06.034Z,16.60
2018-06-01T00:18:33.583Z,16.70
2018-06-01T00:21:01.145Z,16.70
2018-06-01T00:23:28.701Z,16.70
2018-06-01T00:25:56.291Z,16.80
2018-06-01T00:28:24.607Z,16.80
2018-06-01T00:30:52.168Z,16.40
2018-06-01T00:33:19.705Z,16.80
2018-06-01T00:35:47.306Z,16.90
2018-06-01T00:38:14.873Z,16.90
2018-06-01T00:40:42.447Z,17.00
2018-06-01T00:43:10.771Z,17.00
2018-06-01T00:45:38.363Z,17.00
2018-06-01T00:48:05.983Z,17.00
2018-06-01T00:50:33.555Z,17.10
2018-06-01T00:53:01.100Z,17.10
2018-06-01T00:55:28.645Z,17.10
2018-06-01T00:57:56.235Z,17.10
2018-06-01T01:00:23.785Z,17.20
2018-06-01T01:02:51.344Z,17.20
2018-06-01T01:05:18.884Z,17.20
2018-06-01T01:07:46.466Z,17.20
2018-06-01T01:10:14.088Z,17.30
2018-06-01T01:12:42.442Z,17.30
2018-06-01T01:15:10.026Z,17.30
2018-06-01T01:17:38.391Z,17.40
2018-06-01T01:20:06.717Z,17.40
2018-06-01T01:22:34.298Z,17.30
2018-06-01T01:25:01.853Z,17.30
2018-06-01T01:27:29.437Z,17.30
2018-06-01T01:29:57.049Z,17.40
2018-06-01T01:32:24.648Z,17.40
2018-06-01T01:34:52.282Z,17.40
2018-06-01T01:37:31.680Z,17.40
2018-06-01T01:39:59.219Z,17.40
2018-06-01T01:42:27.548Z,17.30
2018-06-01T01:44:55.087Z,17.30
2018-06-01T01:47:22.674Z,17.40
2018-06-01T01:49:54.212Z,17.40
2018-06-01T01:52:21.811Z,17.40
2018-06-01T01:54:49.399Z,17.40
2018-06-01T01:57:16.986Z,17.40
2018-06-01T01:59:44.551Z,17.40
2018-06-01T02:02:12.114Z,17.40
2018-06-01T02:04:39.664Z,17.40
2018-06-01T02:07:07.220Z,17.40
2018-06-01T02:09:34.838Z,17.40
2018-06-01T02:12:03.183Z,17.40
2018-06-01T02:14:30.719Z,17.40
2018-06-01T02:16:58.311Z,17.40
2018-06-01T02:19:25.875Z,17.30
2018-06-01T02:21:53.443Z,17.30
2018-06-01T02:24:20.980Z,17.30
2018-06-01T02:26:48.578Z,17.20
2018-06-01T02:29:16.890Z,17.30
2018-06-01T02:31:44.488Z,17.20
2018-06-01T02:34:12.089Z,17.20
2018-06-01T02:36:39.663Z,17.20
2018-06-01T02:39:07.212Z,17.20
2018-06-01T02:41:34.795Z,17.10
2018-06-01T02:44:02.373Z,17.10
2018-06-01T02:46:29.962Z,17.10
2018-06-01T02:48:57.509Z,17.10
2018-06-01T02:51:25.093Z,17.10
2018-06-01T02:53:53.412Z,17.00
2018-06-01T02:56:20.996Z,17.10
2018-06-01T02:58:48.558Z,17.00
2018-06-01T03:01:16.099Z,17.00
2018-06-01T03:03:43.670Z,16.90
2018-06-01T03:06:11.215Z,16.90
2018-06-01T03:08:38.773Z,16.80
2018-06-01T03:11:06.347Z,16.80
2018-06-01T03:13:33.939Z,16.80
2018-06-01T03:16:01.515Z,16.90
2018-06-01T03:18:29.087Z,16.90
2018-06-01T03:20:56.646Z,16.80
2018-06-01T03:23:24.220Z,16.80
2018-06-01T03:25:51.801Z,16.80
2018-06-01T03:28:19.725Z,16.80
2018-06-01T03:30:47.295Z,16.80
2018-06-01T03:33:14.884Z,16.80
2018-06-01T03:35:42.459Z,16.80
2018-06-01T03:38:10.039Z,16.80
2018-06-01T03:40:37.594Z,16.80
2018-06-01T03:43:05.169Z,16.80
2018-06-01T03:45:32.722Z,16.80
2018-06-01T03:48:00.314Z,16.80
2018-06-01T03:50:27.895Z,16.80
2018-06-01T04:05:00.729Z,17.40
2018-06-01T04:07:28.296Z,17.50
2018-06-01T04:09:56.112Z,17.50
2018-06-01T04:12:24.511Z,17.40
2018-06-01T04:14:52.139Z,17.40
2018-06-01T04:17:19.733Z,17.30
2018-06-01T04:19:47.264Z,17.40
2018-06-01T04:22:15.623Z,17.40
2018-06-01T04:24:43.237Z,17.40
2018-06-01T04:27:10.923Z,17.30
2018-06-01T04:29:38.475Z,17.30
2018-06-01T04:32:06.101Z,17.30
2018-06-01T04:34:33.713Z,17.20
2018-06-01T04:37:01.308Z,17.30
2018-06-01T04:39:28.924Z,17.30
2018-06-01T04:41:56.474Z,17.40
2018-06-01T04:44:24.064Z,17.40
2018-06-01T04:46:52.391Z,17.40
2018-06-01T04:49:19.988Z,17.40
2018-06-01T04:51:47.534Z,17.40
2018-06-01T04:54:15.185Z,17.50
2018-06-01T04:56:42.762Z,17.40
2018-06-01T04:59:10.388Z,17.50
2018-06-01T05:01:38.096Z,17.60
2018-06-01T05:04:07.052Z,17.60
2018-06-01T05:06:35.415Z,17.70
2018-06-01T05:09:03.237Z,17.80
2018-06-01T05:11:31.257Z,17.80
2018-06-01T05:13:59.801Z,17.80
2018-06-01T05:16:27.513Z,17.80
2018-06-01T05:18:55.323Z,17.80
2018-06-01T05:21:23.022Z,17.90
2018-06-01T05:23:50.655Z,17.80
2018-06-01T05:26:18.287Z,18.10
2018-06-01T05:28:46.031Z,18.20
2018-06-01T05:31:15.102Z,18.20
2018-06-01T05:33:42.889Z,18.20
2018-06-01T05:36:10.518Z,18.30
2018-06-01T05:38:38.529Z,18.30
2018-06-01T05:41:06.448Z,18.30
2018-06-01T05:43:34.643Z,18.20
2018-06-01T05:46:04.107Z,18.20
2018-06-01T05:48:31.871Z,18.40
2018-06-01T05:51:01.113Z,18.80
2018-06-01T05:53:28.812Z,18.70
2018-06-01T05:55:57.633Z,18.90
2018-06-01T05:58:25.239Z,18.80
2018-06-01T06:00:53.778Z,18.80
2018-06-01T06:03:21.315Z,18.70
2018-06-01T06:05:49.628Z,18.60
2018-06-01T06:08:17.154Z,18.60
2018-06-01T06:10:45.472Z,18.80
2018-06-01T06:13:13.791Z,18.80
2018-06-01T06:15:41.340Z,18.80
2018-06-01T06:18:08.859Z,18.90
2018-06-01T06:20:36.419Z,18.80
2018-06-01T06:23:03.964Z,18.50
2018-06-01T06:25:31.525Z,18.60
2018-06-01T06:27:59.048Z,18.60
2018-06-01T06:30:27.349Z,18.60
2018-06-01T06:32:54.903Z,18.60
2018-06-01T06:35:22.427Z,18.40
2018-06-01T06:37:49.991Z,18.50
2018-06-01T06:40:17.531Z,18.40
2018-06-01T06:42:45.083Z,18.40
2018-06-01T06:45:12.603Z,18.40
2018-06-01T06:47:40.161Z,18.50
2018-06-01T06:50:07.684Z,18.70
2018-06-01T06:52:35.223Z,18.60
2018-06-01T06:55:02.752Z,18.60
2018-06-01T06:57:30.304Z,18.70
2018-06-01T06:59:57.827Z,18.70
2018-06-01T07:02:26.140Z,18.90
2018-06-01T07:04:53.674Z,18.80
2018-06-01T07:07:21.222Z,18.90
2018-06-01T07:09:49.513Z,18.80
2018-06-01T07:12:17.064Z,18.80
2018-06-01T07:14:45.355Z,19.10
2018-06-01T07:17:12.892Z,19.10
2018-06-01T07:19:41.205Z,19.20
2018-06-01T07:22:08.734Z,19.20
2018-06-01T07:24:37.043Z,19.50
2018-06-01T07:27:04.679Z,19.50
2018-06-01T07:29:32.376Z,19.60
2018-06-01T07:31:59.895Z,19.60
2018-06-01T07:34:27.441Z,19.90
2018-06-01T07:36:55.729Z,20.00
2018-06-01T07:39:23.274Z,20.00
2018-06-01T07:41:51.574Z,19.90
2018-06-01T07:44:19.123Z,20.00
2018-06-01T07:46:46.645Z,19.80
2018-06-01T07:49:14.184Z,19.80
2018-06-01T07:51:41.698Z,19.90
2018-06-01T07:54:09.241Z,19.90
2018-06-01T07:56:36.791Z,19.70
2018-06-01T07:59:04.328Z,19.40
2018-06-01T08:01:31.847Z,19.50
2018-06-01T08:03:59.398Z,19.50
2018-06-01T08:06:26.919Z,19.60
2018-06-01T08:08:54.443Z,20.10
2018-06-01T08:11:21.975Z,20.40
2018-06-01T08:13:49.483Z,20.60
2018-06-01T08:16:17.018Z,20.70
2018-06-01T08:18:44.549Z,20.50
2018-06-01T08:21:12.087Z,20.90
2018-06-01T08:23:40.371Z,21.40
2018-06-01T08:26:07.911Z,21.40
2018-06-01T08:28:36.203Z,21.30
2018-06-01T08:31:03.744Z,21.30
2018-06-01T08:33:32.027Z,21.60
2018-06-01T08:36:00.338Z,21.00
2018-06-01T08:38:27.860Z,21.00
2018-06-01T08:40:56.171Z,22.00
2018-06-01T08:43:23.688Z,22.00
2018-06-01T08:45:51.992Z,22.00
2018-06-01T08:48:19.731Z,22.00
2018-06-01T08:50:48.052Z,21.60
2018-06-01T08:53:15.579Z,21.60
2018-06-01T08:55:43.104Z,21.40
2018-06-01T08:58:10.671Z,21.60
2018-06-01T09:00:38.976Z,21.90
2018-06-01T09:03:06.532Z,21.90
2018-06-01T09:05:34.081Z,21.70
2018-06-01T09:08:02.562Z,21.30
2018-06-01T09:10:30.160Z,21.20
2018-06-01T09:12:57.928Z,21.50
2018-06-01T09:15:25.561Z,21.30
2018-06-01T09:17:53.353Z,21.10
2018-06-01T09:20:21.029Z,20.80
2018-06-01T09:22:48.702Z,20.70
2018-06-01T09:25:16.352Z,20.50
2018-06-01T09:27:43.997Z,20.60
2018-06-01T09:30:11.547Z,21.10
2018-06-01T09:32:39.190Z,21.80
2018-06-01T09:35:06.792Z,22.60
2018-06-01T09:37:34.335Z,22.90
2018-06-01T09:40:01.860Z,23.20
2018-06-01T09:42:29.413Z,23.10
2018-06-01T09:44:56.931Z,23.30
2018-06-01T09:47:24.462Z,22.80
2018-06-01T09:49:52.011Z,22.30
2018-06-01T09:52:19.535Z,21.80
2018-06-01T09:54:47.855Z,21.60
2018-06-01T09:57:15.402Z,21.60
2018-06-01T09:59:42.953Z,22.30
2018-06-01T10:02:10.480Z,23.50
2018-06-01T10:04:38.027Z,24.80
2018-06-01T10:07:05.551Z,25.60
2018-06-01T10:09:33.487Z,25.40
2018-06-01T10:12:01.015Z,24.00
2018-06-01T10:14:29.328Z,23.80
2018-06-01T10:16:56.872Z,23.70
2018-06-01T10:19:24.415Z,23.50
2018-06-01T10:21:52.703Z,23.20
2018-06-01T10:24:21.039Z,23.00
2018-06-01T10:26:48.555Z,22.90
2018-06-01T10:29:16.099Z,23.40
2018-06-01T10:31:43.615Z,23.60
2018-06-01T10:34:11.159Z,23.50
2018-06-01T10:36:38.681Z,23.20
2018-06-01T10:39:06.249Z,23.50
2018-06-01T10:41:33.778Z,23.20
2018-06-01T10:44:01.343Z,23.80
2018-06-01T10:46:29.628Z,24.10
2018-06-01T10:48:57.182Z,24.10
2018-06-01T10:51:24.703Z,24.40
2018-06-01T10:53:52.229Z,24.40
2018-06-01T10:56:19.772Z,24.30
2018-06-01T10:58:47.290Z,24.40
2018-06-01T11:01:14.839Z,24.60
2018-06-01T11:03:42.494Z,24.80
2018-06-01T11:06:10.052Z,24.90
2018-06-01T11:08:37.574Z,24.70
2018-06-01T11:11:05.124Z,24.70
2018-06-01T11:13:32.719Z,25.20
2018-06-01T11:16:00.276Z,26.10
2018-06-01T11:18:27.799Z,26.70
2018-06-01T11:20:55.348Z,26.40
2018-06-01T11:23:22.867Z,26.70
2018-06-01T11:25:50.414Z,26.80
2018-06-01T11:28:17.926Z,27.40
2018-06-01T11:30:45.471Z,27.50
2018-06-01T11:33:12.996Z,27.60
2018-06-01T11:35:40.812Z,27.40
2018-06-01T11:38:08.329Z,27.90
2018-06-01T11:40:35.947Z,28.00
2018-06-01T11:43:03.488Z,27.10
2018-06-01T11:45:31.015Z,27.30
2018-06-01T11:47:59.329Z,26.80
2018-06-01T11:50:26.857Z,26.70
2018-06-01T11:52:54.406Z,26.70
2018-06-01T11:55:22.695Z,27.20
2018-06-01T11:57:50.393Z,27.20
2018-06-01T12:00:17.915Z,27.20
2018-06-01T12:02:45.450Z,27.20
2018-06-01T12:05:12.965Z,26.80
2018-06-01T12:07:40.503Z,27.00
2018-06-01T12:10:08.042Z,27.10
2018-06-01T12:12:36.462Z,26.80
2018-06-01T12:15:03.995Z,26.70
2018-06-01T12:17:31.542Z,27.20
2018-06-01T12:19:59.069Z,27.90
2018-06-01T12:22:26.607Z,27.60
2018-06-01T12:24:54.131Z,26.70
2018-06-01T12:27:21.667Z,26.20
2018-06-01T12:29:50.337Z,25.90
2018-06-01T12:32:17.894Z,25.90
2018-06-01T12:34:45.667Z,26.00
2018-06-01T12:37:14.111Z,25.80
2018-06-01T12:39:42.059Z,25.80
2018-06-01T12:42:09.668Z,26.30
2018-06-01T12:44:38.614Z,27.30
2018-06-01T12:47:06.433Z,27.30
2018-06-01T12:49:34.818Z,27.30
2018-06-01T12:52:04.456Z,27.20
2018-06-01T12:54:32.207Z,26.80
2018-06-01T12:56:59.746Z,27.50
2018-06-01T12:59:27.526Z,27.70
2018-06-01T13:01:55.936Z,27.20
2018-06-01T13:04:23.986Z,27.20
2018-06-01T13:06:52.455Z,27.30
2018-06-01T13:09:20.812Z,27.80
2018-06-01T13:11:49.958Z,27.70
2018-06-01T13:14:17.509Z,27.70
2018-06-01T13:16:45.275Z,28.00
2018-06-01T13:19:12.817Z,27.90
2018-06-01T13:21:40.567Z,27.60
2018-06-01T13:24:08.860Z,27.30
2018-06-01T13:26:37.340Z,26.90
2018-06-01T13:29:06.017Z,26.80
2018-06-01T13:31:33.975Z,26.50
2018-06-01T13:34:02.368Z,26.00
2018-06-01T13:36:29.899Z,25.70
2018-06-01T13:38:58.211Z,26.70
2018-06-01T13:41:25.740Z,26.70
2018-06-01T13:43:53.259Z,26.50
2018-06-01T13:46:20.946Z,26.20
2018-06-01T13:48:49.249Z,26.00
2018-06-01T13:51:16.817Z,26.00
2018-06-01T13:53:44.656Z,25.70
2018-06-01T13:56:12.199Z,26.20
2018-06-01T13:58:40.811Z,26.40
2018-06-01T14:01:09.370Z,26.40
2018-06-01T14:03:37.842Z,27.20
2018-06-01T14:06:06.192Z,26.80
2018-06-01T14:08:33.706Z,26.80
2018-06-01T14:11:01.242Z,26.20
2018-06-01T14:13:29.537Z,26.40
2018-06-01T14:15:57.074Z,26.30
2018-06-01T14:18:25.364Z,26.90
2018-06-01T14:20:52.908Z,26.90
2018-06-01T14:23:21.191Z,26.40
2018-06-01T14:25:49.499Z,26.30
2018-06-01T14:28:17.019Z,26.30
2018-06-01T14:30:45.324Z,26.50
2018-06-01T14:33:12.884Z,26.40
2018-06-01T14:35:40.423Z,26.50
2018-06-01T14:38:07.942Z,26.20
2018-06-01T14:40:35.502Z,25.70
2018-06-01T14:43:03.018Z,25.80
2018-06-01T14:45:30.551Z,26.10
2018-06-01T14:47:58.833Z,26.50
2018-06-01T14:50:27.115Z,26.30
2018-06-01T14:52:54.660Z,26.30
2018-06-01T14:55:22.938Z,26.40
2018-06-01T14:57:51.234Z,26.40
2018-06-01T15:00:18.753Z,26.40
2018-06-01T15:02:46.553Z,26.40
2018-06-01T15:05:14.074Z,26.50
2018-06-01T15:07:41.614Z,26.20
2018-06-01T15:10:09.127Z,26.00
2018-06-01T15:12:36.665Z,26.20
2018-06-01T15:15:04.945Z,26.30
2018-06-01T15:17:33.250Z,26.20
2018-06-01T15:20:00.768Z,26.20
2018-06-01T15:22:28.334Z,26.20
2018-06-01T15:24:56.627Z,25.90
2018-06-01T15:27:24.171Z,25.90
2018-06-01T15:29:52.552Z,25.80
2018-06-01T15:32:20.163Z,25.70
2018-06-01T15:34:47.950Z,25.70
2018-06-01T15:37:15.500Z,25.20
2018-06-01T15:39:43.188Z,25.00
2018-06-01T15:42:11.495Z,25.00
2018-06-01T15:44:39.056Z,25.00
2018-06-01T15:47:06.590Z,25.00
2018-06-01T15:49:34.111Z,25.00
2018-06-01T15:52:01.658Z,24.80
2018-06-01T15:54:29.176Z,25.00
2018-06-01T15:56:56.716Z,24.90
2018-06-01T15:59:24.997Z,24.50
2018-06-01T16:01:52.537Z,24.50
2018-06-01T16:04:20.827Z,24.70
2018-06-01T16:06:49.124Z,24.90
2018-06-01T16:09:16.645Z,24.90
2018-06-01T16:11:44.946Z,24.60
2018-06-01T16:14:12.468Z,24.70
2018-06-01T16:16:40.792Z,24.90
2018-06-01T16:19:08.320Z,24.80
2018-06-01T16:21:36.605Z,25.10
2018-06-01T16:24:04.912Z,25.10
2018-06-01T16:26:32.433Z,25.00
2018-06-01T16:29:00.736Z,24.60
2018-06-01T16:31:28.314Z,24.70
2018-06-01T16:33:55.811Z,24.50
2018-06-01T16:36:23.394Z,24.50
2018-06-01T16:38:50.939Z,24.50
2018-06-01T16:41:19.223Z,24.20
2018-06-01T16:43:47.519Z,24.00
2018-06-01T16:46:15.036Z,24.00
2018-06-01T16:48:42.570Z,23.90
2018-06-01T16:51:10.086Z,23.90
2018-06-01T16:53:37.623Z,23.80
2018-06-01T16:56:05.906Z,23.50
2018-06-01T16:58:33.446Z,23.50
2018-06-01T17:01:00.967Z,23.40
2018-06-01T17:03:28.502Z,23.40
2018-06-01T17:05:56.023Z,23.40
2018-06-01T17:08:24.331Z,23.20
2018-06-01T17:10:51.846Z,22.90
2018-06-01T17:13:19.387Z,23.10
2018-06-01T17:15:46.911Z,23.20
2018-06-01T17:18:14.460Z,23.20
2018-06-01T17:20:41.994Z,23.20
2018-06-01T17:23:10.294Z,23.00
2018-06-01T17:25:37.815Z,23.00
2018-06-01T17:28:05.354Z,23.00
2018-06-01T17:30:32.871Z,23.00
2018-06-01T17:33:00.403Z,22.90
2018-06-01T17:35:28.683Z,22.80
2018-06-01T17:37:57.033Z,22.70
2018-06-01T17:40:24.520Z,22.70
2018-06-01T17:42:52.849Z,22.60
2018-06-01T17:45:20.375Z,22.60
2018-06-01T17:47:47.942Z,22.50
2018-06-01T17:50:16.265Z,22.50
2018-06-01T17:52:43.820Z,22.40
2018-06-01T17:55:11.367Z,22.40
2018-06-01T17:57:38.933Z,22.30
2018-06-01T18:00:06.525Z,22.30
2018-06-01T18:02:34.836Z,22.10
2018-06-01T18:05:02.413Z,22.10
2018-06-01T18:07:29.983Z,22.10
2018-06-01T18:09:57.533Z,22.00
2018-06-01T18:12:27.144Z,21.90
2018-06-01T18:14:54.696Z,21.80
2018-06-01T18:17:22.269Z,21.70
2018-06-01T18:19:49.847Z,21.60
2018-06-01T18:22:18.169Z,21.50
2018-06-01T18:24:45.711Z,21.50
2018-06-01T18:27:13.244Z,21.50
2018-06-01T18:29:41.560Z,21.40
2018-06-01T18:32:09.103Z,21.40
2018-06-01T18:34:36.730Z,21.30
2018-06-01T18:37:04.264Z,21.30
2018-06-01T18:39:31.863Z,21.20
2018-06-01T18:42:00.195Z,21.10
2018-06-01T18:44:27.770Z,21.00
2018-06-01T18:46:55.331Z,21.00
2018-06-01T18:49:22.912Z,20.90
2018-06-01T18:51:51.227Z,20.70
2018-06-01T18:54:18.779Z,20.70
2018-06-01T18:56:46.322Z,20.60
2018-06-01T18:59:13.885Z,20.50
2018-06-01T19:01:41.488Z,20.40
2018-06-01T19:04:09.068Z,20.30
2018-06-01T19:06:36.645Z,20.20
2018-06-01T19:09:05.947Z,20.00
2018-06-01T19:11:33.528Z,19.90
2018-06-01T19:14:01.151Z,19.90
2018-06-01T19:16:29.458Z,19.70
2018-06-01T19:18:57.099Z,19.60
2018-06-01T19:21:25.412Z,19.50
2018-06-01T19:23:52.971Z,19.40
2018-06-01T19:26:20.550Z,19.40
2018-06-01T19:28:48.135Z,19.30
2018-06-01T19:31:15.725Z,19.20
2018-06-01T19:33:43.283Z,19.10
2018-06-01T19:36:10.856Z,19.10
2018-06-01T19:38:38.442Z,19.00
2018-06-01T19:41:05.992Z,19.00
2018-06-01T19:43:33.579Z,18.90
2018-06-01T19:46:01.129Z,18.90
2018-06-01T19:48:28.688Z,18.80
2018-06-01T19:50:56.230Z,18.80
2018-06-01T19:53:23.848Z,18.70
2018-06-01T19:55:51.387Z,18.70
2018-06-01T19:58:18.962Z,18.60
2018-06-01T20:00:46.548Z,18.50
2018-06-01T20:03:14.104Z,18.50
2018-06-01T20:05:41.655Z,18.40
2018-06-01T20:08:09.225Z,18.30
2018-06-01T20:10:36.769Z,18.20
2018-06-01T20:13:04.335Z,18.20
2018-06-01T20:15:31.910Z,18.10
2018-06-01T20:17:59.444Z,18.10
2018-06-01T20:20:27.011Z,18.00
2018-06-01T20:22:54.543Z,17.90
2018-06-01T20:25:22.891Z,17.80
2018-06-01T20:27:50.450Z,17.80
2018-06-01T20:30:18.029Z,17.70
2018-06-01T20:32:46.360Z,17.60
2018-06-01T20:35:13.952Z,17.60
2018-06-01T20:37:41.562Z,17.50
2018-06-01T20:40:09.123Z,17.40
2018-06-01T20:42:36.739Z,17.40
2018-06-01T20:45:04.329Z,17.30
2018-06-01T20:47:31.888Z,17.30
2018-06-01T20:50:05.369Z,17.20
2018-06-01T20:52:33.283Z,17.20
2018-06-01T20:55:00.849Z,17.10
2018-06-01T20:57:28.390Z,17.00
2018-06-01T20:59:55.960Z,17.00
2018-06-01T21:02:23.504Z,16.90
2018-06-01T21:04:51.089Z,16.90
2018-06-01T21:07:18.669Z,16.80
2018-06-01T21:09:46.265Z,16.80
2018-06-01T21:12:13.827Z,16.80
2018-06-01T21:14:41.635Z,16.70
2018-06-01T21:17:09.228Z,16.70
2018-06-01T21:19:37.633Z,16.60
2018-06-01T21:22:05.187Z,16.60
2018-06-01T21:24:33.190Z,16.60
2018-06-01T21:27:00.753Z,16.50
2018-06-01T21:29:28.368Z,16.40
2018-06-01T21:31:56.962Z,16.40
2018-06-01T21:34:24.871Z,16.30
2018-06-01T21:36:53.025Z,16.20
2018-06-01T21:39:20.651Z,16.20
2018-06-01T21:41:48.653Z,16.10
2018-06-01T21:44:16.289Z,16.10
2018-06-01T21:46:43.916Z,16.00
2018-06-01T21:49:11.541Z,16.00
2018-06-01T21:51:39.416Z,15.90
2018-06-01T21:54:07.814Z,15.80
2018-06-01T21:56:36.041Z,15.80
2018-06-01T21:59:03.683Z,15.80
2018-06-01T22:01:31.496Z,15.70
2018-06-01T22:03:59.202Z,15.70
2018-06-01T22:06:26.768Z,15.60
2018-06-01T22:08:54.358Z,15.60
2018-06-01T22:11:22.225Z,15.50
2018-06-01T22:13:50.453Z,15.50
2018-06-01T22:16:18.442Z,15.50
2018-06-01T22:18:46.314Z,15.40
2018-06-01T22:21:13.908Z,15.40
2018-06-01T22:23:41.487Z,15.40
2018-06-01T22:26:09.111Z,15.40
2018-06-01T22:28:36.695Z,15.50
2018-06-01T22:31:04.322Z,15.50
2018-06-01T22:33:31.860Z,15.60
2018-06-01T22:35:59.434Z,15.60
2018-06-01T22:38:26.975Z,15.70
2018-06-01T22:40:54.531Z,15.70
2018-06-01T22:43:22.149Z,15.80
2018-06-01T22:45:49.731Z,15.80
2018-06-01T22:48:17.357Z,15.90
2018-06-01T22:50:44.911Z,15.90
2018-06-01T22:53:12.541Z,16.00
2018-06-01T22:55:40.151Z,16.10
2018-06-01T22:58:07.736Z,16.10
2018-06-01T23:00:43.109Z,16.10
2018-06-01T23:03:10.691Z,16.20
2018-06-01T23:05:38.249Z,16.40
2018-06-01T23:08:05.803Z,16.40
2018-06-01T23:10:33.355Z,16.50
2018-06-01T23:13:00.887Z,16.60
2018-06-01T23:15:28.443Z,16.60
2018-06-01T23:17:55.985Z,16.60
2018-06-01T23:20:24.324Z,16.60
2018-06-01T23:22:51.861Z,16.60
2018-06-01T23:25:19.423Z,16.50
2018-06-01T23:27:46.966Z,16.50
2018-06-01T23:30:14.516Z,16.50
2018-06-01T23:32:42.050Z,16.40
2018-06-01T23:35:10.378Z,16.20
2018-06-01T23:37:37.924Z,16.20
2018-06-01T23:40:05.505Z,16.20
2018-06-01T23:42:33.057Z,16.10
2018-06-01T23:45:00.652Z,16.00
2018-06-01T23:47:28.222Z,16.00
2018-06-01T23:49:56.557Z,16.00
2018-06-01T23:52:24.149Z,16.00
2018-06-01T23:54:51.734Z,16.00
2018-06-01T23:57:19.274Z,15.90
2018-06-01T23:59:46.869Z,15.90
